Terminal Aerodrome Forecast
Issued by NWS Jackson, MS

Home | Current Version | Previous Version | Text Only | Print | Product List | Glossary On
Versions: 1 2 3 4 5 6 7 8 9 10 11 12
000
FTUS44 KMEG 281722
TAFTUP
TAF
KTUP 281722Z 2818/2918 28005KT P6SM SCT050
     FM290100 00000KT P6SM SKC
      TEMPO 2910/2912 5SM HZ
     FM291500 30005KT P6SM FEW045=

USA.gov is the U.S. government's official web portal to all federal, state and local government web resources and services.